Time;durP1;ratioP1;P1;durP2;ratioP2;P2;SDS_P1;SDS_P2;PMS_P1;PMS_P2;Temp;Humidity;BMP_temperature;BMP_pressure;BME280_temperature;BME280_humidity;BME280_pressure;Samples;Min_cycle;Max_cycle;Signal;HPM_P1;HPM_P2
2021/08/10 00:00:08;;;;;;;17.90;11.20;;;26.10;77.90;;;;;;1871843;77;21170;-48
2021/08/10 00:02:39;;;;;;;13.53;11.85;;;26.00;78.10;;;;;;1871564;76;21057;-49
2021/08/10 00:05:09;;;;;;;15.63;10.80;;;26.00;78.30;;;;;;1871850;77;21029;-48
2021/08/10 00:07:38;;;;;;;11.18;9.50;;;26.00;78.50;;;;;;1871860;77;21115;-48
2021/08/10 00:10:08;;;;;;;11.95;10.48;;;26.00;78.60;;;;;;1871805;77;21028;-48
2021/08/10 00:12:38;;;;;;;11.73;10.45;;;26.00;78.60;;;;;;1871821;77;21037;-49
2021/08/10 00:15:09;;;;;;;12.37;10.68;;;26.00;78.60;;;;;;1871895;77;21041;-49
2021/08/10 00:17:38;;;;;;;18.62;11.73;;;26.00;78.50;;;;;;1871862;77;21029;-49
2021/08/10 00:20:09;;;;;;;15.95;11.38;;;26.00;78.60;;;;;;1871958;77;21061;-48
2021/08/10 00:22:38;;;;;;;14.05;10.50;;;26.00;78.70;;;;;;1871798;77;21029;-49
2021/08/10 00:25:09;;;;;;;14.68;12.18;;;26.00;78.70;;;;;;1871807;77;21041;-49
2021/08/10 00:27:38;;;;;;;13.15;10.38;;;26.00;78.70;;;;;;1871939;77;21091;-48
2021/08/10 00:30:08;;;;;;;12.37;10.28;;;26.10;78.60;;;;;;1871909;77;21037;-50
2021/08/10 00:32:37;;;;;;;11.43;10.32;;;26.10;78.50;;;;;;1871930;77;21099;-49
2021/08/10 00:35:07;;;;;;;12.07;10.58;;;26.10;78.40;;;;;;1871758;77;21032;-49
2021/08/10 00:37:37;;;;;;;13.72;10.10;;;26.20;78.50;;;;;;1871881;77;21107;-49
2021/08/10 00:40:07;;;;;;;13.05;11.75;;;26.20;78.40;;;;;;1871813;77;21095;-48
2021/08/10 00:42:36;;;;;;;12.40;11.00;;;26.20;78.30;;;;;;1871773;77;21170;-49
2021/08/10 00:45:07;;;;;;;13.38;11.88;;;26.20;78.30;;;;;;1871832;77;21029;-48
2021/08/10 00:47:38;;;;;;;14.28;11.28;;;26.20;78.30;;;;;;1871917;76;21032;-48
2021/08/10 00:50:10;;;;;;;13.45;11.22;;;26.20;78.30;;;;;;1871937;77;21504;-49
2021/08/10 00:52:41;;;;;;;11.55;10.35;;;26.20;78.30;;;;;;1870741;76;21146;-49
2021/08/10 00:55:12;;;;;;;16.57;12.90;;;26.20;78.20;;;;;;1871800;76;21152;-47
2021/08/10 00:57:41;;;;;;;16.32;12.03;;;26.20;78.20;;;;;;1871983;77;21087;-47
2021/08/10 01:00:11;;;;;;;15.43;12.25;;;26.20;78.20;;;;;;1871806;77;21061;-49
2021/08/10 01:02:43;;;;;;;12.85;10.82;;;26.20;78.20;;;;;;1871906;77;21005;-46
2021/08/10 01:05:14;;;;;;;16.35;12.28;;;26.20;78.20;;;;;;1880718;76;21143;-50
2021/08/10 01:07:49;;;;;;;14.10;12.70;;;26.30;78.40;;;;;;1880684;76;21108;-48
2021/08/10 01:10:26;;;;;;;16.80;12.53;;;26.20;78.40;;;;;;1871556;76;21077;-49
2021/08/10 01:13:19;;;;;;;16.97;11.43;;;26.20;78.50;;;;;;1871480;76;21114;-46
2021/08/10 01:15:53;;;;;;;15.88;12.25;;;26.10;78.60;;;;;;1871779;76;21029;-50
2021/08/10 01:18:26;;;;;;;15.03;12.63;;;26.00;78.80;;;;;;1871649;76;21119;-49
2021/08/10 01:21:13;;;;;;;15.48;12.75;;;26.00;78.90;;;;;;1870988;76;21491;-49
2021/08/10 01:23:46;;;;;;;18.62;12.82;;;26.00;79.10;;;;;;1872212;76;21075;-50
2021/08/10 01:26:27;;;;;;;16.50;13.38;;;25.90;79.20;;;;;;1871941;77;21487;-48
2021/08/10 01:29:07;;;;;;;13.50;11.57;;;25.90;79.50;;;;;;1871514;76;21056;-49
2021/08/10 01:31:41;;;;;;;19.42;12.88;;;25.80;79.60;;;;;;1868258;76;21119;-51
2021/08/10 01:34:30;;;;;;;13.75;12.45;;;25.90;79.70;;;;;;1871823;76;21041;-48
2021/08/10 01:37:03;;;;;;;18.45;13.68;;;25.90;79.70;;;;;;1872327;76;21085;-49
2021/08/10 01:39:36;;;;;;;14.73;12.28;;;25.90;79.70;;;;;;1871906;77;21033;-46
2021/08/10 01:42:07;;;;;;;14.03;12.40;;;25.80;79.80;;;;;;1871892;77;21009;-49
2021/08/10 01:44:37;;;;;;;15.72;11.12;;;25.80;79.80;;;;;;1871961;77;21094;-49
2021/08/10 01:47:09;;;;;;;14.65;11.65;;;25.80;79.80;;;;;;1872082;76;21056;-46
2021/08/10 01:49:40;;;;;;;14.65;13.15;;;25.90;79.80;;;;;;1871884;77;21037;-48
2021/08/10 01:52:17;;;;;;;15.23;12.33;;;25.90;79.80;;;;;;1871862;76;21064;-48
2021/08/10 01:54:49;;;;;;;19.70;12.73;;;25.80;79.80;;;;;;1871614;76;21072;-50
2021/08/10 01:57:18;;;;;;;17.48;13.68;;;25.70;80.10;;;;;;1871972;76;21131;-49
2021/08/10 01:59:50;;;;;;;18.07;13.28;;;25.60;80.40;;;;;;1872038;76;21103;-50
2021/08/10 02:02:20;;;;;;;22.37;14.55;;;25.50;80.70;;;;;;1871918;77;21098;-47
2021/08/10 02:04:51;;;;;;;28.15;15.43;;;25.40;81.30;;;;;;1871916;76;21142;-46
2021/08/10 02:07:20;;;;;;;26.12;14.75;;;25.40;81.40;;;;;;1872096;77;21029;-46
2021/08/10 02:09:52;;;;;;;20.50;13.90;;;25.40;81.80;;;;;;1871971;77;21084;-49
2021/08/10 02:12:22;;;;;;;18.32;13.35;;;25.40;82.00;;;;;;1871946;77;21009;-49
2021/08/10 02:14:54;;;;;;;21.20;14.63;;;25.40;82.30;;;;;;1871918;77;21021;-49
2021/08/10 02:17:25;;;;;;;25.20;15.60;;;25.40;82.40;;;;;;1872031;76;21013;-50
2021/08/10 02:19:56;;;;;;;21.82;14.83;;;25.40;82.70;;;;;;1871930;76;21033;-46
2021/08/10 02:22:27;;;;;;;21.23;13.78;;;25.40;82.90;;;;;;1871902;77;21029;-46
2021/08/10 02:25:14;;;;;;;28.12;12.53;;;25.40;82.80;;;;;;1871864;76;21464;-45
2021/08/10 02:27:50;;;;;;;11.78;6.60;;;25.20;82.80;;;;;;1855729;77;21070;-46
2021/08/10 02:30:23;;;;;;;7.33;5.22;;;25.10;82.90;;;;;;1871988;77;21076;-46
2021/08/10 02:32:54;;;;;;;5.72;4.33;;;24.90;83.10;;;;;;1871976;76;21009;-46
2021/08/10 02:35:28;;;;;;;13.60;6.50;;;24.70;83.20;;;;;;1871872;77;21127;-45
2021/08/10 02:38:00;;;;;;;10.35;4.53;;;24.60;83.40;;;;;;1871900;77;21111;-46
2021/08/10 02:40:30;;;;;;;5.90;4.50;;;24.50;83.60;;;;;;1871819;77;21436;-45
2021/08/10 02:43:02;;;;;;;8.33;4.90;;;24.30;83.50;;;;;;1871980;77;21096;-46
2021/08/10 02:45:36;;;;;;;5.08;4.30;;;24.30;83.90;;;;;;1871993;76;21013;-49
2021/08/10 02:48:05;;;;;;;;;;;24.20;83.90;;;;;;1874816;77;21045;-49
2021/08/10 02:50:36;;;;;;;5.65;4.08;;;24.20;83.90;;;;;;1871901;77;20108;-48
2021/08/10 02:53:06;;;;;;;6.50;4.03;;;24.10;83.80;;;;;;1871867;76;21100;-50
2021/08/10 02:55:39;;;;;;;5.97;3.62;;;24.00;83.90;;;;;;1871938;76;21050;-49
2021/08/10 02:58:21;;;;;;;6.60;3.70;;;24.10;84.10;;;;;;1884960;76;21143;-48
2021/08/10 03:00:55;;;;;;;7.85;3.90;;;24.10;84.00;;;;;;1886115;76;21064;-45
2021/08/10 03:03:27;;;;;;;4.30;2.80;;;24.10;84.00;;;;;;1884924;76;21092;-46
2021/08/10 03:05:58;;;;;;;7.12;3.98;;;24.00;84.30;;;;;;1886334;76;21021;-49
2021/08/10 03:08:33;;;;;;;8.68;3.85;;;23.90;83.70;;;;;;1886292;76;21107;-47
2021/08/10 03:11:04;;;;;;;5.53;3.55;;;23.90;83.60;;;;;;1885274;76;21460;-46
2021/08/10 03:13:39;;;;;;;6.47;4.50;;;23.90;83.60;;;;;;1885988;76;21123;-47
2021/08/10 03:16:09;;;;;;;8.63;4.25;;;23.80;83.50;;;;;;1886395;76;21021;-46
2021/08/10 03:18:42;;;;;;;8.45;4.58;;;23.80;83.70;;;;;;1886261;76;21073;-46
2021/08/10 03:21:12;;;;;;;8.90;5.70;;;23.70;83.90;;;;;;1886437;76;21033;-45
2021/08/10 03:23:44;;;;;;;6.55;4.08;;;23.60;84.10;;;;;;1886222;76;21092;-49
2021/08/10 03:26:15;;;;;;;7.60;4.92;;;23.60;84.30;;;;;;1886382;76;21116;-47
2021/08/10 03:28:45;;;;;;;7.92;4.60;;;23.60;84.50;;;;;;1886262;76;21053;-50
2021/08/10 03:31:17;;;;;;;8.90;5.22;;;23.60;84.60;;;;;;1886204;76;21107;-49
2021/08/10 03:33:49;;;;;;;8.88;5.17;;;23.60;84.50;;;;;;1886155;76;21053;-47
2021/08/10 03:36:20;;;;;;;6.03;4.37;;;23.70;84.50;;;;;;1886229;76;21033;-46
2021/08/10 03:38:54;;;;;;;8.15;4.58;;;23.80;84.50;;;;;;1886403;76;21080;-49
2021/08/10 03:41:26;;;;;;;8.05;5.37;;;23.90;84.40;;;;;;1886331;76;21034;-50
2021/08/10 03:43:57;;;;;;;5.85;4.10;;;24.00;84.30;;;;;;1886360;76;21484;-47
2021/08/10 03:46:30;;;;;;;8.25;4.12;;;24.00;83.80;;;;;;1886261;76;21112;-46
2021/08/10 03:49:00;;;;;;;5.50;4.25;;;24.00;83.40;;;;;;1886429;76;21518;-48
2021/08/10 03:51:31;;;;;;;8.45;5.35;;;24.00;83.20;;;;;;1886145;76;21030;-49
2021/08/10 03:54:01;;;;;;;6.30;4.45;;;24.00;83.30;;;;;;1886280;76;21182;-48
2021/08/10 03:56:33;;;;;;;7.92;4.28;;;23.90;83.60;;;;;;1886209;76;21112;-48
2021/08/10 03:59:03;;;;;;;6.08;4.90;;;23.90;83.50;;;;;;1886370;76;21025;-47
2021/08/10 04:01:34;;;;;;;6.42;4.35;;;23.90;83.50;;;;;;1886196;76;21010;-47
2021/08/10 04:04:04;;;;;;;8.83;4.90;;;23.90;83.50;;;;;;1886216;76;21095;-47
2021/08/10 04:06:35;;;;;;;6.15;4.05;;;23.90;83.60;;;;;;1886321;76;21026;-49
2021/08/10 04:09:07;;;;;;;5.85;4.85;;;23.90;83.60;;;;;;1886234;76;21022;-47
2021/08/10 04:11:39;;;;;;;10.30;4.97;;;23.90;83.60;;;;;;1886192;76;21159;-48
2021/08/10 04:14:10;;;;;;;7.10;5.03;;;23.80;83.90;;;;;;1885927;76;21034;-47
2021/08/10 04:16:51;;;;;;;5.90;4.28;;;23.90;84.10;;;;;;1886310;76;21030;-48
2021/08/10 04:19:23;;;;;;;7.67;4.80;;;24.00;84.30;;;;;;1886215;76;21037;-48
2021/08/10 04:21:54;;;;;;;7.75;4.53;;;24.00;84.10;;;;;;1886212;76;21045;-47
2021/08/10 04:24:23;;;;;;;7.03;4.90;;;24.10;84.00;;;;;;1886012;76;21041;-46
2021/08/10 04:26:53;;;;;;;6.85;4.47;;;24.10;83.90;;;;;;1886067;76;21217;-47
2021/08/10 04:29:23;;;;;;;9.78;6.30;;;24.10;83.90;;;;;;1886039;76;21041;-48
2021/08/10 04:31:53;;;;;;;6.37;4.95;;;24.20;84.10;;;;;;1886155;76;21135;-47
2021/08/10 04:34:22;;;;;;;6.87;5.00;;;24.20;83.90;;;;;;1886148;76;21052;-46
2021/08/10 04:36:52;;;;;;;5.70;4.30;;;24.20;83.70;;;;;;1886277;76;21084;-46
2021/08/10 04:39:23;;;;;;;9.48;5.30;;;24.20;83.70;;;;;;1886139;76;21155;-47
2021/08/10 04:41:53;;;;;;;7.40;4.50;;;24.20;83.50;;;;;;1886304;76;21097;-47
2021/08/10 04:44:23;;;;;;;7.28;4.47;;;24.30;83.30;;;;;;1886101;76;21034;-47
2021/08/10 04:46:52;;;;;;;6.37;4.10;;;24.30;83.40;;;;;;1886247;76;21029;-46
2021/08/10 04:49:22;;;;;;;5.78;4.30;;;24.30;83.40;;;;;;1886175;76;21155;-46
2021/08/10 04:51:51;;;;;;;7.83;4.92;;;24.30;83.40;;;;;;1886114;76;21069;-47
2021/08/10 04:54:21;;;;;;;5.28;4.50;;;24.40;83.50;;;;;;1886284;76;21158;-48
2021/08/10 04:56:50;;;;;;;5.35;4.45;;;24.40;83.40;;;;;;1886227;76;20997;-48
2021/08/10 04:59:20;;;;;;;5.50;4.15;;;24.40;83.30;;;;;;1886232;76;21061;-48
2021/08/10 05:01:50;;;;;;;6.22;3.90;;;24.50;83.30;;;;;;1886140;76;21069;-48
2021/08/10 05:04:20;;;;;;;5.97;4.53;;;24.50;83.20;;;;;;1886036;76;21037;-47
2021/08/10 05:06:50;;;;;;;7.97;4.85;;;24.50;83.30;;;;;;1886258;76;21092;-47
2021/08/10 05:09:20;;;;;;;7.30;5.03;;;24.50;83.30;;;;;;1886115;76;21033;-46
2021/08/10 05:11:49;;;;;;;8.83;5.10;;;24.60;83.30;;;;;;1886132;76;21087;-46
2021/08/10 05:14:19;;;;;;;10.75;5.50;;;24.60;83.10;;;;;;1886145;76;21099;-46
2021/08/10 05:16:48;;;;;;;7.58;6.03;;;24.60;82.70;;;;;;1886011;76;21029;-47
2021/08/10 05:19:18;;;;;;;10.08;6.08;;;24.60;82.70;;;;;;1886128;76;21115;-45
2021/08/10 05:21:48;;;;;;;8.20;6.22;;;24.50;82.70;;;;;;1885995;76;21149;-46
2021/08/10 05:24:17;;;;;;;9.60;5.70;;;24.50;82.70;;;;;;1886081;76;21005;-48
2021/08/10 05:26:46;;;;;;;6.45;4.28;;;24.50;82.80;;;;;;1886215;76;21457;-47
2021/08/10 05:29:16;;;;;;;7.30;4.95;;;24.50;82.80;;;;;;1886134;76;21115;-47
2021/08/10 05:31:45;;;;;;;6.50;4.37;;;24.50;82.90;;;;;;1885950;76;21095;-46
2021/08/10 05:34:16;;;;;;;7.87;5.53;;;24.50;82.80;;;;;;1886096;76;21066;-48
2021/08/10 05:36:46;;;;;;;9.68;5.25;;;24.50;83.10;;;;;;1886105;76;21103;-48
2021/08/10 05:39:15;;;;;;;8.25;5.25;;;24.50;83.30;;;;;;1886044;76;21022;-46
2021/08/10 05:41:45;;;;;;;8.48;5.35;;;24.50;83.40;;;;;;1886151;76;21033;-46
2021/08/10 05:44:16;;;;;;;7.33;4.70;;;24.50;83.60;;;;;;1886267;76;21033;-46
2021/08/10 05:46:47;;;;;;;5.45;4.83;;;24.50;83.50;;;;;;1886128;76;21564;-46
2021/08/10 05:49:18;;;;;;;4.70;3.95;;;24.60;83.60;;;;;;1885947;76;21123;-47
2021/08/10 05:51:48;;;;;;;6.92;4.80;;;24.50;83.70;;;;;;1886052;76;21103;-47
2021/08/10 05:54:18;;;;;;;11.70;5.72;;;24.50;83.60;;;;;;1886157;76;21100;-49
2021/08/10 05:56:49;;;;;;;7.90;5.10;;;24.50;83.90;;;;;;1886030;76;21041;-46
2021/08/10 05:59:20;;;;;;;13.53;6.95;;;24.40;84.00;;;;;;1877183;76;21083;-50
2021/08/10 06:01:49;;;;;;;8.68;5.92;;;24.30;84.00;;;;;;1871902;77;21098;-47
2021/08/10 06:04:19;;;;;;;9.33;6.12;;;24.30;84.20;;;;;;1871849;77;21069;-49
2021/08/10 06:06:49;;;;;;;11.25;8.18;;;24.20;84.40;;;;;;1871808;77;21037;-46
2021/08/10 06:09:18;;;;;;;10.10;7.15;;;24.30;84.60;;;;;;1871841;77;21087;-48
2021/08/10 06:11:48;;;;;;;11.43;7.85;;;24.20;84.70;;;;;;1871978;76;21107;-49
2021/08/10 06:14:17;;;;;;;10.60;7.62;;;24.20;84.90;;;;;;1871848;76;21103;-46
2021/08/10 06:16:47;;;;;;;10.60;7.83;;;24.20;85.20;;;;;;1872107;77;21083;-47
2021/08/10 06:19:18;;;;;;;9.98;7.35;;;24.30;85.60;;;;;;1871792;76;21048;-46
2021/08/10 06:21:48;;;;;;;10.55;8.08;;;24.30;85.60;;;;;;1871918;76;21037;-49
2021/08/10 06:24:18;;;;;;;12.63;8.03;;;24.30;85.80;;;;;;1871897;77;21005;-47
2021/08/10 06:26:47;;;;;;;10.45;6.37;;;24.40;85.80;;;;;;1871891;77;21033;-46
2021/08/10 06:29:18;;;;;;;10.45;7.20;;;24.40;85.70;;;;;;1871915;77;21032;-48
2021/08/10 06:31:48;;;;;;;13.00;8.00;;;24.50;85.60;;;;;;1872014;77;21025;-48
2021/08/10 06:34:17;;;;;;;10.68;6.92;;;24.60;85.40;;;;;;1871933;76;21005;-46
2021/08/10 06:36:46;;;;;;;11.38;7.05;;;24.60;85.40;;;;;;1872020;77;21041;-48
2021/08/10 06:39:17;;;;;;;9.30;6.53;;;24.70;85.50;;;;;;1871862;77;21099;-46
2021/08/10 06:41:48;;;;;;;10.88;7.75;;;24.80;85.30;;;;;;1872170;76;21032;-48
2021/08/10 06:44:18;;;;;;;9.25;7.22;;;24.90;85.10;;;;;;1871769;77;21095;-49
2021/08/10 06:46:58;;;;;;;11.43;8.08;;;25.00;84.90;;;;;;1871685;76;21056;-46
2021/08/10 06:49:29;;;;;;;9.75;6.10;;;25.10;84.60;;;;;;1871733;76;21044;-46
2021/08/10 06:51:58;;;;;;;8.75;5.95;;;25.20;84.40;;;;;;1871753;76;21186;-46
2021/08/10 06:54:27;;;;;;;11.05;6.00;;;25.10;84.20;;;;;;1871731;76;21013;-46
2021/08/10 06:57:00;;;;;;;9.00;6.62;;;25.10;84.50;;;;;;1871751;77;21125;-48
2021/08/10 06:59:29;;;;;;;7.22;5.17;;;25.00;84.70;;;;;;1871720;76;21172;-47
2021/08/10 07:01:58;;;;;;;6.03;5.25;;;24.90;84.80;;;;;;1871720;77;21091;-47
2021/08/10 07:04:28;;;;;;;7.65;5.03;;;24.90;85.00;;;;;;1871143;77;21162;-49
2021/08/10 07:06:57;;;;;;;5.28;4.20;;;24.90;85.10;;;;;;1870296;76;21104;-53
2021/08/10 07:09:27;;;;;;;7.60;4.12;;;25.00;85.60;;;;;;1869780;76;21009;-50
2021/08/10 07:11:56;;;;;;;6.50;4.03;;;25.20;85.70;;;;;;1871086;77;21025;-52
2021/08/10 07:14:26;;;;;;;6.58;4.00;;;25.40;85.10;;;;;;1871072;76;21061;-51
2021/08/10 07:16:56;;;;;;;5.42;3.70;;;25.70;85.00;;;;;;1871078;77;21052;-51
2021/08/10 07:19:26;;;;;;;7.87;3.58;;;25.90;83.80;;;;;;1871192;77;21037;-51
2021/08/10 07:21:55;;;;;;;5.80;3.40;;;26.00;83.70;;;;;;1871113;77;21045;-50
2021/08/10 07:24:26;;;;;;;4.60;3.30;;;26.30;83.30;;;;;;1871086;76;21044;-51
2021/08/10 07:26:55;;;;;;;5.55;3.90;;;26.50;82.60;;;;;;1871141;76;21013;-51
2021/08/10 07:29:26;;;;;;;5.90;3.62;;;26.70;82.00;;;;;;1870922;76;21068;-48
2021/08/10 07:31:57;;;;;;;5.62;3.58;;;26.90;81.10;;;;;;1871097;77;21107;-52
2021/08/10 07:34:28;;;;;;;7.58;4.22;;;27.00;80.60;;;;;;1871059;77;21098;-52
2021/08/10 07:36:59;;;;;;;9.65;5.87;;;27.10;80.10;;;;;;1871100;76;21064;-51
2021/08/10 07:39:28;;;;;;;8.35;5.20;;;27.20;78.80;;;;;;1871067;76;21029;-51
2021/08/10 07:41:58;;;;;;;8.75;5.37;;;27.20;78.00;;;;;;1871068;76;21567;-48
2021/08/10 07:44:28;;;;;;;13.65;6.35;;;27.20;78.10;;;;;;1870910;77;21186;-50
2021/08/10 07:46:58;;;;;;;15.35;7.70;;;27.20;78.10;;;;;;1871145;77;21111;-48
2021/08/10 07:49:27;;;;;;;12.25;7.22;;;27.20;78.00;;;;;;1871192;77;21158;-50
2021/08/10 07:51:57;;;;;;;14.07;7.83;;;27.10;77.50;;;;;;1871043;76;21111;-48
2021/08/10 07:54:26;;;;;;;15.75;8.20;;;27.10;77.80;;;;;;1871191;77;21045;-51
2021/08/10 07:56:57;;;;;;;12.82;7.08;;;27.10;77.50;;;;;;1871176;77;21115;-52
2021/08/10 07:59:26;;;;;;;11.18;6.78;;;27.10;77.80;;;;;;1871132;76;21194;-50
2021/08/10 08:01:55;;;;;;;10.25;6.25;;;27.10;78.10;;;;;;1871304;76;21099;-51
2021/08/10 08:04:25;;;;;;;10.90;6.50;;;27.30;78.10;;;;;;1871342;76;21527;-50
2021/08/10 08:06:54;;;;;;;11.78;7.05;;;27.40;77.90;;;;;;1871278;77;21099;-50
2021/08/10 08:09:25;;;;;;;12.00;6.85;;;27.60;77.60;;;;;;1871108;77;21124;-48
2021/08/10 08:11:55;;;;;;;9.00;6.00;;;27.70;77.30;;;;;;1871064;77;21092;-52
2021/08/10 08:14:24;;;;;;;8.50;6.03;;;27.80;76.80;;;;;;1871058;76;21092;-54
2021/08/10 08:16:54;;;;;;;12.80;6.55;;;27.80;75.00;;;;;;1871356;77;21092;-53
2021/08/10 08:19:23;;;;;;;10.15;5.83;;;27.80;74.90;;;;;;1871250;76;21135;-52
2021/08/10 08:21:54;;;;;;;10.75;5.58;;;27.80;75.00;;;;;;1871056;76;21100;-53
2021/08/10 08:24:24;;;;;;;7.97;5.47;;;27.70;74.70;;;;;;1871194;77;21092;-48
2021/08/10 08:26:53;;;;;;;10.50;6.00;;;27.60;74.80;;;;;;1871262;76;21056;-51
2021/08/10 08:29:23;;;;;;;13.00;5.70;;;27.50;75.00;;;;;;1871076;77;21103;-51
2021/08/10 08:31:52;;;;;;;9.00;5.05;;;27.50;75.50;;;;;;1871239;77;21178;-53
2021/08/10 08:34:21;;;;;;;9.98;4.85;;;27.40;75.70;;;;;;1871122;76;21162;-52
2021/08/10 08:36:52;;;;;;;8.53;5.25;;;27.40;75.30;;;;;;1871113;76;21037;-52
2021/08/10 08:39:22;;;;;;;10.78;5.87;;;27.30;75.50;;;;;;1871255;77;21049;-54
2021/08/10 08:41:52;;;;;;;17.92;10.65;;;27.10;75.80;;;;;;1871284;77;21122;-50
2021/08/10 08:44:22;;;;;;;10.32;6.62;;;27.00;76.20;;;;;;1871049;77;21088;-50
2021/08/10 08:46:54;;;;;;;12.50;7.25;;;27.10;77.10;;;;;;1871075;77;21211;-53
2021/08/10 08:49:25;;;;;;;8.88;6.30;;;27.10;76.70;;;;;;1871089;76;21005;-48
2021/08/10 08:51:55;;;;;;;13.60;6.87;;;27.20;76.50;;;;;;1871085;77;21120;-52
2021/08/10 08:54:25;;;;;;;10.32;5.92;;;27.20;76.70;;;;;;1871245;76;21114;-52
2021/08/10 08:56:55;;;;;;;8.33;6.12;;;27.20;76.10;;;;;;1871207;76;21136;-52
2021/08/10 08:59:26;;;;;;;11.30;6.45;;;27.10;76.10;;;;;;1871263;77;21098;-52
2021/08/10 09:01:56;;;;;;;13.62;6.70;;;27.00;75.90;;;;;;1884254;75;21081;-52
2021/08/10 09:04:25;;;;;;;12.55;6.25;;;27.00;75.80;;;;;;1885598;76;21175;-52
2021/08/10 09:06:56;;;;;;;9.38;6.22;;;27.00;76.00;;;;;;1885130;76;21065;-51
2021/08/10 09:09:30;;;;;;;14.00;6.25;;;27.00;75.80;;;;;;1885489;76;21041;-52
2021/08/10 09:12:03;;;;;;;9.08;5.85;;;27.00;76.00;;;;;;1884093;76;21142;-52
2021/08/10 09:14:45;;;;;;;6.75;5.33;;;27.00;76.30;;;;;;1884639;76;21504;-52
2021/08/10 09:17:18;;;;;;;8.48;6.15;;;27.00;76.20;;;;;;1885509;76;21215;-52
2021/08/10 09:19:51;;;;;;;13.10;6.30;;;27.00;76.20;;;;;;1885173;76;21178;-53
2021/08/10 09:22:26;;;;;;;12.37;8.85;;;27.00;76.30;;;;;;1884330;76;21045;-52
2021/08/10 09:25:05;;;;;;;11.10;5.92;;;27.10;76.40;;;;;;1885511;76;21174;-51
2021/08/10 09:27:38;;;;;;;11.57;6.58;;;27.10;76.10;;;;;;1883813;76;21187;-46
2021/08/10 09:30:10;;;;;;;9.40;5.62;;;27.10;76.10;;;;;;1885439;76;21049;-52
2021/08/10 09:33:00;;;;;;;8.48;5.50;;;27.10;76.10;;;;;;1885672;76;21049;-52
2021/08/10 09:35:36;;;;;;;12.33;6.92;;;27.10;75.90;;;;;;1885222;76;21181;-49
2021/08/10 09:38:12;;;;;;;7.97;6.10;;;27.20;76.10;;;;;;1885698;76;21037;-52
2021/08/10 09:40:45;;;;;;;10.15;6.05;;;27.20;76.40;;;;;;1885865;76;21088;-53
2021/08/10 09:43:35;;;;;;;8.08;6.10;;;27.30;76.20;;;;;;1885455;76;21117;-50
2021/08/10 09:46:11;;;;;;;9.58;5.75;;;27.30;76.20;;;;;;1884896;76;21182;-51
2021/08/10 09:48:41;;;;;;;;;;;27.40;76.20;;;;;;1888434;76;21084;-50
2021/08/10 09:51:15;;;;;;;9.33;6.35;;;27.50;76.20;;;;;;1885511;76;20509;-51
2021/08/10 09:54:02;;;;;;;11.38;6.00;;;27.50;76.00;;;;;;1885636;76;21041;-53
2021/08/10 09:56:53;;;;;;;12.47;5.95;;;27.60;76.10;;;;;;1885790;76;21112;-52
2021/08/10 09:59:24;;;;;;;6.40;5.67;;;27.70;76.10;;;;;;1885467;76;21155;-50
2021/08/10 10:02:00;;;;;;;7.10;6.37;;;27.80;75.60;;;;;;1876527;76;21111;-52
2021/08/10 10:04:28;;;;;;;9.18;6.40;;;28.00;75.10;;;;;;1870635;76;21064;-51
2021/08/10 10:07:12;;;;;;;10.63;6.08;;;28.10;74.30;;;;;;1870221;76;21174;-55
2021/08/10 10:09:43;;;;;;;9.10;6.22;;;28.20;74.10;;;;;;1869122;76;21173;-50
2021/08/10 10:12:15;;;;;;;11.08;6.20;;;28.20;73.70;;;;;;1871224;77;21115;-51
2021/08/10 10:14:46;;;;;;;9.60;5.47;;;28.20;73.70;;;;;;1871218;76;21175;-53
2021/08/10 10:17:16;;;;;;;8.70;6.28;;;28.20;73.60;;;;;;1871413;77;21028;-55
2021/08/10 10:19:47;;;;;;;11.03;6.35;;;28.20;73.50;;;;;;1871188;77;21041;-51
2021/08/10 10:22:24;;;;;;;8.03;5.65;;;28.30;73.40;;;;;;1871447;77;21107;-54
2021/08/10 10:24:58;;;;;;;14.15;7.95;;;28.20;73.40;;;;;;1871342;77;21162;-55
2021/08/10 10:27:28;;;;;;;15.88;6.08;;;28.20;73.50;;;;;;1870625;76;21181;-51
2021/08/10 10:29:57;;;;;;;5.72;5.08;;;28.30;73.20;;;;;;1871249;77;21099;-55
2021/08/10 10:32:27;;;;;;;9.40;7.80;;;28.30;73.40;;;;;;1871252;77;21045;-56
2021/08/10 10:34:56;;;;;;;10.13;7.78;;;28.30;72.90;;;;;;1871167;76;21013;-55
2021/08/10 10:37:27;;;;;;;7.83;5.28;;;28.30;72.90;;;;;;1871298;76;21033;-55
2021/08/10 10:40:02;;;;;;;7.55;5.35;;;28.30;72.90;;;;;;1871200;76;21069;-54
2021/08/10 10:42:32;;;;;;;9.78;5.33;;;28.30;72.60;;;;;;1871086;77;21095;-52
2021/08/10 10:45:02;;;;;;;8.18;6.33;;;28.30;72.50;;;;;;1871241;77;21052;-54
2021/08/10 10:47:34;;;;;;;11.50;9.60;;;28.30;72.70;;;;;;1871150;77;21114;-53
2021/08/10 10:50:06;;;;;;;9.80;6.58;;;28.40;73.20;;;;;;1871132;77;21131;-51
2021/08/10 10:52:36;;;;;;;8.75;5.33;;;28.50;72.50;;;;;;1871237;77;21586;-53
2021/08/10 10:55:06;;;;;;;15.48;6.83;;;28.50;72.40;;;;;;1872323;76;21092;-52
2021/08/10 10:57:37;;;;;;;12.43;7.45;;;28.60;72.30;;;;;;1889265;76;21039;-53
2021/08/10 11:00:13;;;;;;;11.75;6.83;;;28.60;71.90;;;;;;1889655;76;21048;-52
2021/08/10 11:02:45;;;;;;;10.08;6.17;;;28.70;72.20;;;;;;1887164;75;21080;-55
2021/08/10 11:05:22;;;;;;;7.25;5.58;;;28.70;72.20;;;;;;1885980;76;20998;-50
2021/08/10 11:07:55;;;;;;;10.20;6.05;;;28.80;72.00;;;;;;1886065;76;21053;-52
2021/08/10 11:10:36;;;;;;;10.05;6.58;;;28.80;71.90;;;;;;1886413;76;21107;-53
2021/08/10 11:13:20;;;;;;;7.03;5.95;;;28.70;71.70;;;;;;1886009;76;21095;-52
2021/08/10 11:15:52;;;;;;;7.97;6.70;;;28.70;71.80;;;;;;1886214;76;21021;-51
2021/08/10 11:18:22;;;;;;;10.05;5.78;;;28.70;72.00;;;;;;1886136;76;21511;-52
2021/08/10 11:20:54;;;;;;;8.28;5.92;;;28.70;71.70;;;;;;1885975;76;21134;-51
2021/08/10 11:23:26;;;;;;;8.43;5.67;;;28.80;72.00;;;;;;1886194;76;21080;-51
2021/08/10 11:26:01;;;;;;;7.87;5.92;;;28.90;71.70;;;;;;1886228;76;21049;-51
2021/08/10 11:28:35;;;;;;;5.50;5.00;;;29.00;71.50;;;;;;1883316;76;21080;-51
2021/08/10 11:31:09;;;;;;;11.48;7.67;;;29.00;71.50;;;;;;1886158;76;21154;-51
2021/08/10 11:33:45;;;;;;;9.20;7.15;;;29.00;71.60;;;;;;1886112;76;21120;-51
2021/08/10 11:36:17;;;;;;;9.63;6.55;;;29.10;71.80;;;;;;1886114;76;21154;-51
2021/08/10 11:38:54;;;;;;;12.28;7.42;;;29.10;71.10;;;;;;1886232;76;21620;-52
2021/08/10 11:41:33;;;;;;;9.70;7.10;;;29.10;71.60;;;;;;1886030;76;21112;-52
2021/08/10 11:44:07;;;;;;;11.05;7.60;;;29.10;71.30;;;;;;1886040;76;21138;-52
2021/08/10 11:46:38;;;;;;;10.20;6.47;;;29.00;71.30;;;;;;1884488;76;21061;-48
2021/08/10 11:49:09;;;;;;;8.20;6.00;;;29.00;71.50;;;;;;1885987;76;21563;-51
2021/08/10 11:51:45;;;;;;;12.25;6.28;;;29.00;71.50;;;;;;1885874;76;21214;-50
2021/08/10 11:54:24;;;;;;;8.75;6.12;;;29.00;71.10;;;;;;1886292;76;21116;-48
2021/08/10 11:57:08;;;;;;;8.63;6.50;;;28.90;71.20;;;;;;1885898;76;21127;-48
2021/08/10 11:59:37;;;;;;;7.03;6.33;;;28.90;71.30;;;;;;1886726;76;21037;-47
2021/08/10 12:02:06;;;;;;;7.92;6.17;;;28.90;71.60;;;;;;1886363;76;21127;-49
2021/08/10 12:04:38;;;;;;;16.82;9.43;;;28.80;71.40;;;;;;1886803;76;21057;-53
2021/08/10 12:07:09;;;;;;;13.08;8.15;;;28.80;72.30;;;;;;1886756;76;21010;-52
2021/08/10 12:09:45;;;;;;;7.92;6.17;;;28.80;73.70;;;;;;1886752;76;21107;-50
2021/08/10 12:12:14;;;;;;;7.67;6.75;;;28.70;73.40;;;;;;1885075;76;21495;-52
2021/08/10 12:14:42;;;;;;;;;;;28.70;73.60;;;;;;1889611;76;21083;-51
2021/08/10 12:17:18;;;;;;;7.97;6.47;;;28.70;75.80;;;;;;1886975;76;20330;-52
2021/08/10 12:19:46;;;;;;;10.65;6.70;;;28.60;73.90;;;;;;1885648;76;21080;-53
2021/08/10 12:22:23;;;;;;;8.45;6.42;;;28.50;74.40;;;;;;1886839;76;21041;-52
2021/08/10 12:24:57;;;;;;;6.70;5.80;;;28.40;75.30;;;;;;1886959;76;21409;-52
2021/08/10 12:27:29;;;;;;;7.17;6.28;;;28.30;75.40;;;;;;1887006;76;21041;-51
2021/08/10 12:30:00;;;;;;;10.28;6.55;;;28.20;75.20;;;;;;1886896;76;21102;-52
2021/08/10 12:32:31;;;;;;;14.93;10.55;;;28.10;76.20;;;;;;1886686;76;21503;-52
2021/08/10 12:35:20;;;;;;;7.72;6.87;;;28.10;76.90;;;;;;1885969;76;21053;-52
2021/08/10 12:37:43;;;;;;;9.83;6.95;;;28.00;76.50;;;;;;1884985;76;21171;-51
2021/08/10 12:40:21;;;;;;;11.30;6.83;;;28.10;76.80;;;;;;1886773;76;21029;-52
2021/08/10 12:42:50;;;;;;;9.80;6.67;;;28.10;76.90;;;;;;1886790;76;21040;-52
2021/08/10 12:45:19;;;;;;;12.23;6.92;;;28.20;76.80;;;;;;1886688;76;21111;-53
2021/08/10 12:47:49;;;;;;;8.05;6.20;;;28.20;76.80;;;;;;1886703;76;21045;-52
2021/08/10 12:50:30;;;;;;;8.55;6.37;;;28.20;76.30;;;;;;1886877;75;21037;-51
2021/08/10 12:52:59;;;;;;;9.28;6.55;;;28.20;76.60;;;;;;1886823;76;21424;-52
2021/08/10 12:55:49;;;;;;;12.50;6.75;;;28.20;76.20;;;;;;1886756;76;21025;-52
2021/08/10 12:58:18;;;;;;;7.17;4.83;;;28.20;75.90;;;;;;1886874;76;21053;-49
2021/08/10 13:01:07;;;;;;;6.20;4.72;;;28.20;74.50;;;;;;1886809;75;21045;-52
2021/08/10 13:03:36;;;;;;;8.58;5.67;;;28.20;74.10;;;;;;1891018;75;21045;-54